Airfield :
LOGIN :

Register | Disclaimer

   EN    FR    IT 

 










Legend :    VFR   Marginal VFR   IFR   Intensive IFR   Very Intensive IFR
Visi :
Ceiling :
>= 8 km
>= 3000ft
5 to 8 km
1000 to 3000 ft
1500m to 5 km
500 to 1000 ft
800 to 1500m
200 to 500 ft
< 800m
< 200 ft
Symbols :   Thunderstorms  Fog  Heavy snow  Heavy precipitations  Wind > 20 kt
SIGMETs :     Misc.  Thunderstorms  Icing  Turbulence  Mountain Waves  Volcanic Ashes






- Airport Elevation : 374 ft
- IATA code : LIS


LPPT - Lisboa Portela

CURRENT METAR :
  • 200330Z 31007KT 9999 BKN028 16/12 Q1014

EXPIRED METARs :
  • 200300Z 31008KT 9999 SCT028 16/12 Q1014
  • 200230Z 31007KT 9999 BKN028 16/12 Q1014
  • 200200Z 30007KT 9999 BKN028 16/12 Q1014
  • 200130Z 31008KT 9999 BKN030 16/12 Q1015
  • 200100Z 31008KT 9999 FEW030 BKN042 16/12 Q1015
  • 200030Z 30007KT 9999 FEW028 16/12 Q1015
  • 200000Z 30008KT 9999 FEW028 SCT040 16/12 Q1015
  • 192330Z 31007KT 9999 SCT036 16/12 Q1015
  • 192300Z 31007KT 9999 FEW034 16/12 Q1016

TAF TAF LPPT
Valid from the 20 at 00:00 until the 21 at 06:00 UTC


192300Z 2000/2106 31007KT 9999 FEW020 SCT035
TEMPO 2004/2020 8000 SHRA BKN018 FEW025CB
PROB30
TEMPO 2006/2018 3000 TSRA SCT020CB
BECMG 2009/2012 09007KT
BECMG 2016/2018 01012KT
BECMG 2019/2022 34007KT FEW012



MET'MAP, your aeronautical weather chart ! - Copyright ORBIFLY December 2007 - Disclaimer

ORBIFLY MET'MAP TEAM :

Programming & Development : Alexandra Zaïnal
Original concept : Baudouin d'Aumeries
Technical & hardware support : Manuel Goepfert
Assistance : Marc-Olivier Méhu




SOURCES & CREDITS :

   NOAA